Time;durP1;ratioP1;P1;durP2;ratioP2;P2;SDS_P1;SDS_P2;PMS_P1;PMS_P2;Temp;Humidity;BMP_temperature;BMP_pressure;BME280_temperature;BME280_humidity;BME280_pressure;Samples;Min_cycle;Max_cycle;Signal;HPM_P1;HPM_P2
2022/06/10 06:24:28;;;;;;;5.78;2.85;;;14.30;99.90;;;;;;6246603;22;20341;-89
2022/06/10 06:49:26;;;;;;;8.55;2.80;;;14.50;99.90;;;;;;6045099;23;20133;-86
2022/06/10 06:52:13;;;;;;;2.72;2.10;;;14.40;99.90;;;;;;6163875;23;20016;-90
2022/06/10 06:55:08;;;;;;;3.25;2.95;;;15.00;99.90;;;;;;6170788;23;20016;-91
2022/06/10 06:57:37;;;;;;;4.60;2.30;;;13.40;99.90;;;;;;6197298;23;20471;-93
2022/06/10 07:00:07;;;;;;;5.78;3.22;;;14.50;99.90;;;;;;6196177;23;20016;-95
2022/06/10 07:02:37;;;;;;;5.68;4.40;;;14.60;99.90;;;;;;6196198;23;20016;-93
2022/06/10 07:05:11;;;;;;;3.38;2.80;;;14.60;99.90;;;;;;6197123;23;20027;-96
2022/06/10 07:07:37;;;;;;;5.97;3.33;;;15.50;99.90;;;;;;6199944;23;20058;-94
2022/06/10 07:10:03;;;;;;;4.43;3.10;;;14.60;99.90;;;;;;6221114;23;20024;-90
2022/06/10 07:12:29;;;;;;;;;;;14.70;99.90;;;;;;6192470;23;20016;-93
2022/06/10 07:14:55;;;;;;;5.63;3.35;;;14.80;99.90;;;;;;6217381;23;20342;-91
2022/06/10 07:17:20;;;;;;;5.87;2.67;;;14.70;99.90;;;;;;6217306;23;20098;-91
2022/06/10 07:19:51;;;;;;;5.40;4.03;;;14.70;99.90;;;;;;6168052;23;20070;-94
2022/06/10 07:22:18;;;;;;;10.57;3.85;;;14.80;99.90;;;;;;6217667;23;20017;-93
2022/06/10 07:24:46;;;;;;;6.22;4.25;;;14.80;99.90;;;;;;6187721;23;20016;-93
2022/06/10 07:27:12;;;;;;;10.65;3.95;;;14.80;99.90;;;;;;6164289;23;20020;-92
2022/06/10 07:29:37;;;;;;;4.85;3.45;;;14.80;99.90;;;;;;6190244;23;20028;-91
2022/06/10 07:32:04;;;;;;;5.50;3.00;;;14.10;99.90;;;;;;6214656;23;20017;-94
2022/06/10 07:34:29;;;;;;;7.15;3.53;;;14.90;99.90;;;;;;6164914;23;20263;-93
2022/06/10 07:36:55;;;;;;;5.87;3.17;;;14.80;99.90;;;;;;6188442;23;20104;-93
2022/06/10 07:39:21;;;;;;;6.47;3.43;;;14.80;99.90;;;;;;6189009;23;20244;-93
2022/06/10 07:42:02;;;;;;;8.15;4.15;;;14.80;99.90;;;;;;6214439;23;20091;-93
2022/06/10 07:44:37;;;;;;;8.40;3.53;;;14.80;99.90;;;;;;6213715;23;20514;-91
2022/06/10 07:47:10;;;;;;;6.80;3.60;;;14.90;99.90;;;;;;6187905;23;20032;-90
2022/06/10 07:49:36;;;;;;;4.97;2.67;;;15.00;99.90;;;;;;6214222;23;20052;-88
2022/06/10 07:52:06;;;;;;;7.78;4.30;;;14.90;99.90;;;;;;6185648;23;20761;-89
2022/06/10 07:54:34;;;;;;;7.63;3.35;;;15.00;99.90;;;;;;6188496;23;20071;-90
2022/06/10 07:57:01;;;;;;;6.55;3.78;;;15.10;99.90;;;;;;6212464;23;20074;-90
2022/06/10 07:59:30;;;;;;;6.40;3.40;;;15.20;99.90;;;;;;6188260;23;20023;-90
2022/06/10 08:01:56;;;;;;;6.68;4.03;;;15.40;99.90;;;;;;6163425;23;20025;-89
2022/06/10 08:04:22;;;;;;;6.35;3.97;;;15.40;99.90;;;;;;6163866;23;20499;-88
2022/06/10 08:06:48;;;;;;;;;;;15.50;99.90;;;;;;6216449;23;20039;-87
2022/06/10 08:09:20;;;;;;;8.02;3.67;;;14.60;99.90;;;;;;6219104;23;20321;-93
2022/06/10 08:11:53;;;;;;;12.65;5.25;;;15.60;99.90;;;;;;6191045;23;20020;-91
2022/06/10 08:14:41;;;;;;;5.78;3.72;;;15.60;99.90;;;;;;6193900;23;20048;-93
2022/06/10 08:17:25;;;;;;;;;;;;;;;;;;;;;
2022/06/10 08:20:03;;;;;;;;;;;;;;;;;;;;;
2022/06/10 08:22:42;;;;;;;;;;;;;;;;;;;;;
2022/06/10 08:25:12;;;;;;;4.82;3.28;;;15.60;99.90;;;;;;6214974;23;20339;-92
2022/06/10 08:27:41;;;;;;;7.55;5.03;;;15.70;99.90;;;;;;6188773;23;20027;-90
2022/06/10 08:30:13;;;;;;;7.40;4.47;;;15.60;99.90;;;;;;6190814;23;20017;-92
2022/06/10 08:32:47;;;;;;;3.88;2.97;;;15.70;99.90;;;;;;6189587;23;20135;-90
2022/06/10 08:35:13;;;;;;;6.53;4.50;;;15.70;99.90;;;;;;6166467;23;20020;-90
2022/06/10 08:37:41;;;;;;;7.93;4.33;;;15.70;99.90;;;;;;6189225;23;20016;-89
2022/06/10 08:40:09;;;;;;;7.35;4.00;;;15.80;99.90;;;;;;6187268;23;20251;-88
2022/06/10 08:42:42;;;;;;;5.85;3.80;;;16.00;99.90;;;;;;6188579;23;20048;-90
2022/06/10 08:45:13;;;;;;;7.03;3.78;;;15.90;99.90;;;;;;6186924;23;20024;-90
2022/06/10 08:48:26;;;;;;;10.23;4.80;;;16.00;99.90;;;;;;6188045;23;20016;-88
2022/06/10 08:51:18;;;;;;;4.43;4.00;;;16.00;99.90;;;;;;6122547;23;20099;-89
2022/06/10 08:53:44;;;;;;;8.95;3.38;;;16.00;99.90;;;;;;6188186;23;20091;-91
2022/06/10 08:56:44;;;;;;;7.40;3.80;;;16.10;99.90;;;;;;6188414;23;20400;-91
2022/06/10 08:59:33;;;;;;;9.30;3.47;;;16.20;99.90;;;;;;6211887;23;20017;-89
2022/06/10 09:02:14;;;;;;;7.55;3.92;;;16.20;99.90;;;;;;6213201;23;20368;-89
2022/06/10 09:05:18;;;;;;;4.78;3.35;;;16.30;99.90;;;;;;6188692;23;20020;-89
2022/06/10 09:07:57;;;;;;;5.22;2.83;;;16.40;99.90;;;;;;6187945;23;20020;-90
2022/06/10 09:10:23;;;;;;;6.25;4.28;;;16.40;99.90;;;;;;6187920;23;20445;-89
2022/06/10 09:13:07;;;;;;;5.03;2.90;;;16.60;99.90;;;;;;6188007;23;20016;-89
2022/06/10 09:15:51;;;;;;;13.45;5.00;;;16.60;99.90;;;;;;6188446;23;20016;-89
2022/06/10 09:18:46;;;;;;;6.35;2.67;;;16.60;99.90;;;;;;6187591;23;20322;-90
2022/06/10 09:21:29;;;;;;;3.90;2.58;;;16.50;99.90;;;;;;6188244;23;20024;-89
2022/06/10 09:24:00;;;;;;;5.97;2.88;;;16.50;99.90;;;;;;6187268;23;20486;-86
2022/06/10 09:26:53;;;;;;;3.50;2.83;;;16.60;99.90;;;;;;6213325;23;20405;-90
2022/06/10 09:29:19;;;;;;;7.15;2.83;;;16.60;99.90;;;;;;6187710;23;20020;-90
2022/06/10 09:32:10;;;;;;;6.10;3.23;;;16.70;99.90;;;;;;6164472;23;20017;-89
2022/06/10 09:34:52;;;;;;;5.38;3.40;;;16.60;99.90;;;;;;6188415;23;20259;-90
2022/06/10 09:37:49;;;;;;;9.30;2.88;;;16.60;99.90;;;;;;6188624;23;20461;-91
2022/06/10 09:40:37;;;;;;;5.83;3.80;;;16.60;99.90;;;;;;6212600;23;20016;-90
2022/06/10 09:43:24;;;;;;;;;;;15.70;99.90;;;;;;6189319;23;20016;-90
2022/06/10 09:46:14;;;;;;;3.67;3.00;;;16.60;99.90;;;;;;6188757;23;20329;-92
2022/06/10 09:49:14;;;;;;;7.28;3.92;;;16.60;99.90;;;;;;6189158;23;20381;-91
2022/06/10 09:52:25;;;;;;;3.53;2.92;;;16.10;99.90;;;;;;6189302;23;20027;-91
2022/06/10 09:55:02;;;;;;;6.53;3.67;;;16.40;99.90;;;;;;6157824;23;20017;-92
2022/06/10 09:57:48;;;;;;;4.47;2.88;;;16.40;99.90;;;;;;6188641;23;20103;-88
2022/06/10 10:00:24;;;;;;;7.20;3.83;;;16.40;99.90;;;;;;6188953;23;20071;-91
2022/06/10 10:02:59;;;;;;;5.45;3.55;;;16.80;99.90;;;;;;6189775;23;20021;-90
2022/06/10 10:05:43;;;;;;;10.40;3.50;;;16.50;99.90;;;;;;6222494;23;20024;-92
2022/06/10 10:08:33;;;;;;;4.72;3.58;;;16.70;99.90;;;;;;6191916;23;20024;-92
2022/06/10 10:11:30;;;;;;;9.13;4.05;;;16.80;99.90;;;;;;6191918;23;20024;-94
2022/06/10 10:14:00;;;;;;;8.60;3.72;;;16.80;99.90;;;;;;6189562;23;20017;-92
2022/06/10 10:16:51;;;;;;;4.50;3.50;;;17.00;99.90;;;;;;6189104;23;20027;-93
2022/06/10 10:19:57;;;;;;;8.65;2.63;;;17.20;99.90;;;;;;6216295;23;20017;-95
2022/06/10 10:22:51;;;;;;;8.75;3.00;;;17.20;99.90;;;;;;6190920;23;20020;-96
2022/06/10 10:25:21;;;;;;;6.78;3.28;;;17.30;99.90;;;;;;6189171;23;20049;-95
2022/06/10 10:27:49;;;;;;;7.15;3.22;;;17.30;99.90;;;;;;6213493;23;20020;-90
2022/06/10 10:30:23;;;;;;;6.32;2.88;;;17.40;99.90;;;;;;6188219;23;20114;-91
2022/06/10 10:32:58;;;;;;;8.23;4.30;;;17.60;99.90;;;;;;6189128;23;20019;-92
2022/06/10 10:35:43;;;;;;;5.18;4.00;;;17.60;99.90;;;;;;6212909;23;20035;-92
2022/06/10 10:38:16;;;;;;;5.20;3.45;;;17.60;99.90;;;;;;6188613;23;20099;-91
2022/06/10 10:40:45;;;;;;;4.28;2.42;;;17.60;99.90;;;;;;6216469;23;20207;-91
2022/06/10 10:43:24;;;;;;;3.88;2.95;;;17.60;99.90;;;;;;6211310;23;20057;-92
2022/06/10 10:46:00;;;;;;;3.63;2.60;;;17.50;99.90;;;;;;6213029;23;20020;-91
2022/06/10 10:48:43;;;;;;;4.60;3.08;;;17.70;99.90;;;;;;6190720;23;20024;-90
2022/06/10 10:51:16;;;;;;;5.35;3.20;;;17.80;99.90;;;;;;6213615;23;20095;-85
2022/06/10 10:53:46;;;;;;;4.13;2.65;;;17.80;99.90;;;;;;6186808;23;20059;-86
2022/06/10 10:56:14;;;;;;;5.25;2.97;;;17.90;99.90;;;;;;6187413;23;20103;-87
2022/06/10 10:58:53;;;;;;;2.92;2.05;;;18.10;99.90;;;;;;6162863;23;20471;-86
2022/06/10 11:01:44;;;;;;;5.53;3.03;;;18.20;99.90;;;;;;6212953;23;20433;-85
2022/06/10 11:04:27;;;;;;;2.95;2.72;;;18.30;99.90;;;;;;6188916;23;20028;-90
2022/06/10 11:07:04;;;;;;;9.20;2.88;;;18.30;99.90;;;;;;6216990;23;20341;-84
2022/06/10 11:09:42;;;;;;;3.47;2.60;;;18.30;99.90;;;;;;6187058;23;20026;-87
2022/06/10 11:12:19;;;;;;;4.15;2.88;;;18.30;99.90;;;;;;6187190;23;20392;-91
2022/06/10 11:15:02;;;;;;;;;;;;;;;;;;;;;
2022/06/10 11:17:56;;;;;;;7.82;3.15;;;18.30;99.90;;;;;;6214026;23;20567;-90
2022/06/10 11:20:36;;;;;;;5.15;2.90;;;18.30;99.90;;;;;;6188636;23;20020;-89
2022/06/10 11:23:24;;;;;;;10.50;3.85;;;18.40;99.90;;;;;;6164118;23;20023;-89
2022/06/10 11:26:17;;;;;;;4.53;2.78;;;18.40;99.90;;;;;;6193401;23;20448;-89
2022/06/10 11:28:44;;;;;;;3.90;2.65;;;18.50;99.90;;;;;;6218418;23;20044;-89
2022/06/10 11:31:59;;;;;;;3.33;2.17;;;18.60;99.90;;;;;;6193052;23;20091;-89
2022/06/10 11:34:42;;;;;;;3.80;2.83;;;18.80;99.90;;;;;;6155887;23;20016;-91
2022/06/10 11:37:41;;;;;;;3.70;2.60;;;18.80;99.90;;;;;;6199750;23;20020;-88
2022/06/10 11:40:15;;;;;;;4.43;1.95;;;18.80;99.90;;;;;;6194556;23;20012;-88
2022/06/10 11:43:12;;;;;;;5.50;2.65;;;19.00;99.90;;;;;;6193862;23;20041;-90
2022/06/10 11:46:09;;;;;;;5.80;2.63;;;19.00;99.90;;;;;;6195719;23;20016;-90
2022/06/10 11:48:52;;;;;;;6.90;2.70;;;18.80;99.90;;;;;;6194473;23;20023;-93
2022/06/10 11:51:45;;;;;;;4.82;3.05;;;18.80;99.90;;;;;;6194408;23;20020;-90
2022/06/10 11:54:39;;;;;;;7.18;3.65;;;19.50;99.90;;;;;;6219193;23;20016;-90
2022/06/10 12:00:44;;;;;;;2.07;1.90;;;19.50;99.90;;;;;;6219923;23;20016;-88
2022/06/10 12:03:31;;;;;;;5.00;2.28;;;19.40;99.90;;;;;;6193488;23;20016;-90
2022/06/10 12:06:12;;;;;;;6.55;3.03;;;19.30;99.90;;;;;;6194642;23;20028;-91
2022/06/10 12:09:02;;;;;;;3.88;2.22;;;19.50;99.90;;;;;;6194437;23;20021;-90
2022/06/10 12:11:40;;;;;;;2.63;2.13;;;19.30;99.90;;;;;;6194528;23;20027;-92
2022/06/10 12:14:36;;;;;;;4.30;2.90;;;19.40;99.90;;;;;;6194533;23;20027;-91
2022/06/10 12:17:13;;;;;;;2.92;2.22;;;19.40;99.90;;;;;;6194098;23;20023;-91
2022/06/10 12:19:45;;;;;;;;;;;19.50;99.90;;;;;;6194697;23;20336;-92
2022/06/10 12:22:24;;;;;;;12.07;2.35;;;19.40;99.90;;;;;;6221315;23;19922;-92
2022/06/10 12:24:53;;;;;;;5.18;2.72;;;19.40;99.90;;;;;;6196262;23;20020;-91
2022/06/10 12:27:52;;;;;;;3.25;2.85;;;18.70;99.90;;;;;;6193892;23;20020;-90
2022/06/10 12:30:35;;;;;;;4.90;2.88;;;19.60;99.90;;;;;;6194186;23;20020;-90
2022/06/10 12:33:25;;;;;;;6.00;2.67;;;19.60;99.90;;;;;;6193920;23;20012;-90
2022/06/10 12:35:54;;;;;;;4.75;2.78;;;19.90;99.90;;;;;;6217706;23;20024;-86
2022/06/10 12:38:35;;;;;;;4.70;2.83;;;19.80;99.90;;;;;;6193755;23;20074;-87
2022/06/10 12:41:10;;;;;;;5.57;2.83;;;19.90;99.90;;;;;;6193044;23;20103;-88
2022/06/10 12:43:55;;;;;;;5.38;2.90;;;20.00;99.90;;;;;;6194626;23;20020;-88
2022/06/10 12:46:37;;;;;;;3.33;2.13;;;20.00;99.90;;;;;;6218934;23;20379;-88
2022/06/10 12:49:19;;;;;;;2.30;2.05;;;20.00;99.90;;;;;;6193985;23;20115;-86
2022/06/10 12:52:11;;;;;;;6.68;2.40;;;20.10;99.90;;;;;;6193917;23;20502;-88
2022/06/10 12:55:03;;;;;;;2.85;2.08;;;20.10;99.90;;;;;;6193774;23;20138;-90
2022/06/10 12:57:37;;;;;;;4.38;3.45;;;20.00;99.90;;;;;;6194427;23;20348;-87
2022/06/10 13:00:34;;;;;;;6.22;2.88;;;20.00;99.90;;;;;;6193224;23;20077;-87
2022/06/10 13:03:12;;;;;;;5.40;2.50;;;20.00;99.90;;;;;;6215973;23;20050;-86
2022/06/10 13:05:37;;;;;;;4.85;2.00;;;20.10;99.90;;;;;;6193634;23;20814;-86
2022/06/10 13:08:34;;;;;;;3.45;2.17;;;20.20;99.90;;;;;;6217945;23;20054;-87
2022/06/10 13:11:01;;;;;;;4.55;1.63;;;20.20;99.90;;;;;;6193187;23;20020;-87
2022/06/10 13:13:27;;;;;;;2.60;2.40;;;20.30;99.90;;;;;;6193836;23;20099;-87
2022/06/10 13:16:15;;;;;;;3.38;2.47;;;20.30;99.90;;;;;;6168142;23;20028;-87
2022/06/10 13:18:53;;;;;;;3.00;2.38;;;20.30;99.90;;;;;;6194108;23;20023;-87
2022/06/10 13:21:31;;;;;;;3.70;2.50;;;20.20;99.90;;;;;;6194533;23;20022;-87
2022/06/10 13:23:59;;;;;;;3.85;2.95;;;20.20;99.90;;;;;;6192122;23;20023;-88
2022/06/10 13:26:28;;;;;;;3.05;2.40;;;20.20;99.90;;;;;;6193813;23;20024;-87
2022/06/10 13:29:15;;;;;;;4.57;2.65;;;20.20;99.90;;;;;;6218063;23;20087;-88
2022/06/10 13:31:48;;;;;;;8.43;2.78;;;20.30;99.90;;;;;;6218222;23;20023;-86
2022/06/10 13:34:25;;;;;;;8.75;3.65;;;20.30;99.90;;;;;;6217803;23;20150;-87
2022/06/10 13:36:59;;;;;;;4.72;2.60;;;20.50;99.90;;;;;;6191793;23;20019;-86
2022/06/10 13:39:39;;;;;;;5.15;2.65;;;20.50;99.90;;;;;;6218231;23;20012;-86
2022/06/10 13:42:05;;;;;;;6.50;3.03;;;20.70;99.90;;;;;;6218080;23;20019;-86
2022/06/10 13:44:49;;;;;;;5.05;3.08;;;20.80;99.90;;;;;;6193531;23;20020;-86
2022/06/10 13:47:23;;;;;;;4.03;2.50;;;20.90;99.90;;;;;;6193796;23;20026;-85
2022/06/10 13:52:50;;;;;;;4.00;2.65;;;20.90;99.90;;;;;;6216895;23;20024;-93
2022/06/10 13:55:28;;;;;;;4.50;3.10;;;20.80;99.90;;;;;;6193451;23;20345;-86
2022/06/10 13:57:56;;;;;;;3.10;2.67;;;20.70;99.90;;;;;;6192667;23;20345;-87
2022/06/10 14:00:26;;;;;;;5.90;3.42;;;20.60;99.90;;;;;;6218727;23;20012;-87
2022/06/10 14:02:53;;;;;;;2.65;2.40;;;20.50;99.90;;;;;;6244054;23;20020;-86
2022/06/10 14:05:24;;;;;;;4.68;2.25;;;20.60;99.90;;;;;;6217985;23;20012;-86
2022/06/10 14:07:50;;;;;;;4.28;2.20;;;20.50;99.90;;;;;;6217815;23;20012;-86
2022/06/10 14:10:16;;;;;;;6.32;3.58;;;20.50;99.90;;;;;;6217893;23;20027;-86
2022/06/10 14:12:53;;;;;;;9.20;3.10;;;20.40;99.90;;;;;;6218520;23;20020;-87
2022/06/10 14:15:19;;;;;;;4.18;3.60;;;20.20;99.90;;;;;;6192490;23;20028;-87
2022/06/10 14:17:50;;;;;;;4.43;2.13;;;20.10;99.90;;;;;;6168072;23;20433;-87
2022/06/10 14:20:19;;;;;;;4.50;2.50;;;20.00;99.90;;;;;;6218368;23;20356;-89
2022/06/10 14:22:48;;;;;;;4.68;2.58;;;20.00;99.90;;;;;;6171234;23;20016;-89
2022/06/10 14:25:18;;;;;;;2.45;2.00;;;19.80;99.90;;;;;;6192077;23;20024;-91
2022/06/10 14:27:57;;;;;;;2.30;2.10;;;18.90;99.90;;;;;;6217990;23;20020;-91
2022/06/10 14:30:34;;;;;;;4.10;2.50;;;19.60;99.90;;;;;;6192353;23;20448;-89
2022/06/10 14:33:30;;;;;;;2.65;2.45;;;19.50;99.90;;;;;;6192327;23;20095;-88
2022/06/10 14:36:24;;;;;;;3.80;2.13;;;19.50;99.90;;;;;;6191755;23;20459;-88
2022/06/10 14:39:27;;;;;;;3.33;2.70;;;19.60;99.90;;;;;;6217433;23;20157;-88
2022/06/10 14:42:27;;;;;;;3.85;1.90;;;19.70;99.90;;;;;;6068855;23;20018;-90
2022/06/10 14:44:56;;;;;;;3.10;2.15;;;20.00;99.90;;;;;;6215049;23;20034;-89
2022/06/10 14:47:33;;;;;;;4.03;2.42;;;20.40;99.90;;;;;;6193451;23;20020;-95
2022/06/10 14:50:17;;;;;;;3.55;1.88;;;20.00;99.90;;;;;;6192686;23;20395;-88
2022/06/10 14:52:52;;;;;;;3.72;2.47;;;20.80;99.90;;;;;;6217866;23;20471;-89
2022/06/10 14:55:23;;;;;;;3.47;2.08;;;21.10;99.90;;;;;;6192183;23;20109;-90
2022/06/10 14:57:59;;;;;;;3.30;1.75;;;21.30;99.90;;;;;;6192174;23;20020;-91
2022/06/10 15:00:28;;;;;;;2.50;1.50;;;21.40;99.90;;;;;;6168065;23;20462;-92
2022/06/10 15:02:55;;;;;;;2.35;1.50;;;21.20;99.90;;;;;;6193684;23;20023;-90
2022/06/10 15:08:10;;;;;;;6.53;1.38;;;21.10;99.90;;;;;;6196706;23;20066;-94
2022/06/10 15:10:45;;;;;;;1.75;1.58;;;21.20;99.90;;;;;;6196709;23;20024;-92
2022/06/10 15:13:16;;;;;;;3.70;1.55;;;21.20;99.90;;;;;;6200309;23;20016;-91
2022/06/10 15:15:43;;;;;;;3.22;1.52;;;21.30;99.90;;;;;;6195554;23;20024;-89
2022/06/10 15:18:13;;;;;;;3.47;1.52;;;21.20;99.90;;;;;;6219849;23;20047;-94
2022/06/10 15:20:42;;;;;;;1.50;1.40;;;21.30;99.90;;;;;;6195614;23;20016;-95
2022/06/10 15:23:12;;;;;;;2.30;1.42;;;21.40;99.90;;;;;;6219732;23;20016;-92
2022/06/10 15:25:54;;;;;;;2.78;1.27;;;21.50;99.90;;;;;;6191895;23;20395;-94
2022/06/10 15:28:37;;;;;;;4.00;1.40;;;21.60;99.90;;;;;;6215816;23;20056;-95
2022/06/10 15:31:07;;;;;;;3.40;2.03;;;21.70;99.90;;;;;;6191917;23;20016;-94
2022/06/10 15:33:36;;;;;;;2.40;1.58;;;21.90;99.90;;;;;;6190706;23;20020;-89
2022/06/10 15:41:42;;;;;;;3.40;1.40;;;21.90;99.90;;;;;;6213798;23;20025;-93
2022/06/10 15:44:30;;;;;;;1.58;1.48;;;22.00;99.90;;;;;;6212938;23;20020;-93
2022/06/10 15:46:59;;;;;;;3.53;1.58;;;22.00;99.90;;;;;;6197342;23;20052;-95
2022/06/10 15:49:25;;;;;;;3.53;1.30;;;20.90;99.90;;;;;;6188284;23;20017;-88
2022/06/10 15:52:04;;;;;;;3.28;1.63;;;22.10;99.90;;;;;;6188866;23;20021;-88
2022/06/10 15:57:28;;;;;;;7.03;2.00;;;22.10;99.90;;;;;;6213537;23;20055;-90
2022/06/10 15:59:58;;;;;;;4.10;1.63;;;22.10;99.90;;;;;;6214050;23;20391;-88
2022/06/10 16:02:27;;;;;;;1.63;1.48;;;22.00;99.90;;;;;;6213467;23;20016;-87
2022/06/10 16:04:53;;;;;;;3.63;1.58;;;22.00;99.90;;;;;;6188388;23;20091;-88
2022/06/10 16:07:20;;;;;;;;;;;22.00;99.90;;;;;;6212769;23;20053;-86
2022/06/10 16:09:47;;;;;;;3.77;1.43;;;22.00;99.90;;;;;;6188210;23;19919;-86
2022/06/10 16:15:23;;;;;;;3.20;1.60;;;22.00;99.90;;;;;;6213755;23;20550;-86
2022/06/10 16:17:51;;;;;;;1.35;1.25;;;22.00;99.90;;;;;;6213836;23;20020;-89
2022/06/10 16:20:19;;;;;;;4.80;2.05;;;21.90;99.90;;;;;;6213446;23;20013;-87
2022/06/10 16:22:45;;;;;;;3.20;1.60;;;21.90;99.90;;;;;;6213607;23;20505;-86
2022/06/10 16:25:13;;;;;;;2.85;1.40;;;21.80;99.90;;;;;;6187022;23;20091;-89
2022/06/10 16:27:41;;;;;;;4.00;1.40;;;21.70;99.90;;;;;;6188345;23;20039;-87
2022/06/10 16:30:11;;;;;;;1.40;1.30;;;21.50;99.90;;;;;;6163877;23;20023;-87
2022/06/10 16:32:37;;;;;;;2.63;1.45;;;21.40;99.90;;;;;;6213230;23;20016;-87
2022/06/10 16:35:03;;;;;;;3.63;2.42;;;21.30;99.90;;;;;;6187328;23;20020;-87
2022/06/10 16:37:32;;;;;;;3.95;2.08;;;21.20;99.90;;;;;;6212611;23;20468;-88
2022/06/10 16:39:57;;;;;;;2.88;1.67;;;21.20;99.90;;;;;;6164301;23;20023;-87
2022/06/10 16:42:28;;;;;;;2.95;1.70;;;21.20;99.90;;;;;;6163293;23;20341;-88
2022/06/10 16:44:54;;;;;;;1.55;1.35;;;21.20;99.90;;;;;;6187697;23;20104;-87
2022/06/10 16:47:21;;;;;;;2.30;1.50;;;21.20;99.90;;;;;;6187606;23;20017;-91
2022/06/10 16:49:52;;;;;;;3.20;1.63;;;21.20;99.90;;;;;;6190240;23;20020;-86
2022/06/10 16:52:22;;;;;;;3.95;2.17;;;21.20;99.90;;;;;;6188731;23;20446;-89
2022/06/10 16:54:50;;;;;;;1.60;1.10;;;20.10;99.90;;;;;;6214659;23;20044;-87
2022/06/10 16:57:23;;;;;;;3.05;1.65;;;21.10;99.90;;;;;;6212868;23;20032;-88
2022/06/10 16:59:49;;;;;;;2.83;1.60;;;21.00;99.90;;;;;;6214030;23;20113;-89
2022/06/10 17:02:19;;;;;;;4.50;1.20;;;21.00;99.90;;;;;;6163967;23;20024;-90
2022/06/10 17:04:45;;;;;;;3.20;2.00;;;21.00;99.90;;;;;;6213859;23;20048;-88
2022/06/10 17:07:24;;;;;;;4.80;1.67;;;20.90;99.90;;;;;;6213340;23;20023;-89
2022/06/10 17:09:54;;;;;;;1.58;1.10;;;20.80;99.90;;;;;;6215615;23;20024;-89
2022/06/10 17:12:26;;;;;;;1.52;1.23;;;20.70;99.90;;;;;;6188346;23;20021;-92
2022/06/10 17:15:01;;;;;;;4.25;1.35;;;20.60;99.90;;;;;;6188383;23;20426;-90
2022/06/10 17:17:29;;;;;;;1.42;1.15;;;20.50;99.90;;;;;;6188301;23;20095;-87
2022/06/10 17:19:58;;;;;;;1.38;1.05;;;20.40;99.90;;;;;;6186533;23;20117;-89
2022/06/10 17:22:24;;;;;;;3.85;1.73;;;20.20;99.90;;;;;;6163540;23;20341;-89
2022/06/10 17:24:50;;;;;;;2.65;1.40;;;20.40;99.90;;;;;;6162623;23;20028;-89
2022/06/10 17:27:26;;;;;;;3.13;1.27;;;20.30;99.90;;;;;;6163654;23;20334;-88
2022/06/10 17:29:55;;;;;;;2.60;1.80;;;20.20;99.90;;;;;;6213433;23;20075;-90
2022/06/10 17:32:31;;;;;;;2.00;1.35;;;20.20;99.90;;;;;;6188176;23;20472;-89
2022/06/10 17:34:58;;;;;;;4.32;1.60;;;20.20;99.90;;;;;;6212700;23;20031;-89
2022/06/10 17:37:27;;;;;;;3.75;1.75;;;20.20;99.90;;;;;;6212994;23;20372;-89
2022/06/10 17:39:54;;;;;;;2.70;1.63;;;20.10;99.90;;;;;;6188554;23;20441;-90
2022/06/10 17:42:24;;;;;;;2.75;1.70;;;19.00;99.90;;;;;;6213561;23;20019;-89
2022/06/10 17:44:50;;;;;;;3.05;1.55;;;20.00;99.90;;;;;;6189186;23;20019;-89
2022/06/10 17:47:24;;;;;;;2.35;1.15;;;20.00;99.90;;;;;;6189027;23;20075;-93
2022/06/10 17:49:52;;;;;;;5.78;1.77;;;20.10;99.90;;;;;;6188211;23;20016;-92
2022/06/10 17:52:26;;;;;;;1.80;1.70;;;20.10;99.90;;;;;;6214334;23;20075;-89
2022/06/10 17:54:56;;;;;;;2.33;1.70;;;20.10;99.90;;;;;;6212262;23;20095;-89
2022/06/10 17:57:30;;;;;;;6.30;2.00;;;20.00;99.90;;;;;;6188491;23;20096;-91
2022/06/10 17:59:58;;;;;;;2.90;1.77;;;20.00;99.90;;;;;;6188449;23;20032;-88
2022/06/10 18:02:42;;;;;;;4.18;3.17;;;18.80;99.90;;;;;;6162978;23;20020;-88
2022/06/10 18:05:25;;;;;;;3.08;1.83;;;19.90;99.90;;;;;;6187961;23;20023;-89
2022/06/10 18:07:54;;;;;;;2.42;1.83;;;19.90;99.90;;;;;;6187401;23;20106;-88
2022/06/10 18:10:20;;;;;;;3.10;1.67;;;19.80;99.90;;;;;;6188113;23;20020;-91
2022/06/10 18:14:53;;;;;;;6.82;1.70;;;19.80;99.90;;;;;;6162534;23;20436;-89
2022/06/10 18:15:40;;;;;;;2.00;1.70;;;19.70;99.90;;;;;;6211641;23;20021;-87
2022/06/10 18:18:12;;;;;;;2.30;1.50;;;19.70;99.90;;;;;;6212966;23;20029;-89
2022/06/10 18:20:37;;;;;;;2.55;1.75;;;19.60;99.90;;;;;;6212451;23;20017;-89
2022/06/10 18:23:18;;;;;;;5.25;1.75;;;19.60;99.90;;;;;;6187828;23;20528;-89
2022/06/10 18:25:44;;;;;;;2.97;2.35;;;19.60;99.90;;;;;;6187167;23;20021;-89
2022/06/10 18:28:10;;;;;;;4.63;1.70;;;19.60;99.90;;;;;;6138402;23;20055;-88
2022/06/10 18:30:40;;;;;;;3.45;1.55;;;19.60;99.90;;;;;;6212499;23;20357;-90
2022/06/10 18:33:14;;;;;;;2.65;1.48;;;19.50;99.90;;;;;;6164238;23;20341;-88
2022/06/10 18:35:43;;;;;;;3.05;1.75;;;19.40;99.90;;;;;;6186810;23;20024;-88
2022/06/10 18:38:12;;;;;;;6.18;2.00;;;19.20;99.90;;;;;;6188084;23;20521;-91
2022/06/10 18:40:38;;;;;;;1.45;1.35;;;19.40;99.90;;;;;;6162640;23;20017;-91
2022/06/10 18:45:49;;;;;;;1.75;1.50;;;19.30;99.90;;;;;;6211297;23;20020;-88
2022/06/10 18:48:31;;;;;;;3.92;1.73;;;19.20;99.90;;;;;;6187513;23;20021;-87
2022/06/10 18:51:00;;;;;;;2.25;2.05;;;19.20;99.90;;;;;;6212158;23;20021;-87
2022/06/10 18:53:27;;;;;;;1.60;1.50;;;19.10;99.90;;;;;;6212048;23;20349;-87
2022/06/10 18:55:56;;;;;;;7.90;3.05;;;19.10;99.90;;;;;;6161767;23;20021;-90
2022/06/10 18:58:24;;;;;;;2.47;1.65;;;19.10;99.90;;;;;;6213080;23;20020;-87
2022/06/10 19:00:54;;;;;;;1.83;1.65;;;19.00;99.90;;;;;;6212111;23;20021;-88
2022/06/10 19:03:32;;;;;;;4.97;1.65;;;19.00;99.90;;;;;;6214606;23;20024;-87
2022/06/10 19:05:58;;;;;;;2.95;1.63;;;19.00;99.90;;;;;;6187412;23;20020;-87
2022/06/10 19:08:28;;;;;;;4.18;1.77;;;19.00;99.90;;;;;;6186077;23;20386;-90
2022/06/10 19:10:54;;;;;;;2.08;1.30;;;18.90;99.90;;;;;;6184701;23;20334;-87
2022/06/10 19:13:20;;;;;;;;;;;19.00;99.90;;;;;;6185793;23;20020;-88
2022/06/10 19:15:52;;;;;;;5.15;2.33;;;18.90;99.90;;;;;;6161032;23;19920;-90
2022/06/10 19:18:28;;;;;;;1.95;1.60;;;18.90;99.90;;;;;;6187112;23;20024;-88
2022/06/10 19:20:58;;;;;;;2.28;1.40;;;18.90;99.90;;;;;;6211887;23;20020;-88
2022/06/10 19:23:27;;;;;;;4.18;1.85;;;18.90;99.90;;;;;;6186708;23;20021;-88
2022/06/10 19:25:59;;;;;;;2.45;2.22;;;18.80;99.90;;;;;;6211040;23;20017;-88
2022/06/10 19:28:33;;;;;;;2.30;1.25;;;18.90;99.90;;;;;;6187239;23;20021;-89
2022/06/10 19:31:02;;;;;;;7.47;2.05;;;18.80;99.90;;;;;;6186704;23;20024;-89
2022/06/10 19:33:31;;;;;;;5.35;1.58;;;18.80;99.90;;;;;;6187434;23;20013;-87
2022/06/10 19:36:02;;;;;;;3.55;1.20;;;18.80;99.90;;;;;;6186271;23;20075;-88
2022/06/10 19:38:30;;;;;;;1.33;1.05;;;18.80;99.90;;;;;;6212463;23;20389;-88
2022/06/10 19:40:58;;;;;;;5.18;1.38;;;18.80;99.90;;;;;;6212037;23;20048;-88
2022/06/10 19:44:35;;;;;;;1.98;1.30;;;18.70;99.90;;;;;;6187496;23;20465;-90
2022/06/10 19:46:20;;;;;;;2.97;1.77;;;18.80;99.90;;;;;;6211576;23;20028;-88
2022/06/10 19:48:50;;;;;;;1.75;1.13;;;18.80;99.90;;;;;;6211400;23;20021;-92
2022/06/10 19:51:23;;;;;;;5.60;1.75;;;18.80;99.90;;;;;;6187360;23;20487;-88
2022/06/10 19:53:50;;;;;;;3.63;2.17;;;18.80;99.90;;;;;;6186654;23;20446;-89
2022/06/10 19:56:29;;;;;;;3.03;1.70;;;18.80;99.90;;;;;;6187171;23;20322;-89
2022/06/10 19:58:55;;;;;;;2.17;1.73;;;18.80;99.90;;;;;;6189060;23;20021;-88
2022/06/10 20:01:30;;;;;;;;;;;18.70;99.90;;;;;;6189262;23;20408;-88
2022/06/10 20:04:01;;;;;;;2.15;1.65;;;18.70;99.90;;;;;;6188732;23;19919;-88
2022/06/10 20:06:28;;;;;;;4.32;1.63;;;18.70;99.90;;;;;;6213598;23;20020;-90
2022/06/10 20:08:56;;;;;;;1.77;1.27;;;18.00;99.90;;;;;;6188488;23;20028;-87
2022/06/10 20:11:22;;;;;;;2.47;1.75;;;18.60;99.90;;;;;;6214222;23;20096;-87
2022/06/10 20:13:53;;;;;;;6.70;3.05;;;18.60;99.90;;;;;;6188779;23;20023;-91
2022/06/10 20:16:26;;;;;;;3.25;1.67;;;18.60;99.90;;;;;;6187818;23;20449;-86
2022/06/10 20:18:59;;;;;;;3.08;1.45;;;18.60;99.90;;;;;;6188470;23;20016;-92
2022/06/10 20:21:28;;;;;;;2.45;1.17;;;18.60;99.90;;;;;;6185921;23;20551;-89
2022/06/10 20:23:56;;;;;;;2.05;1.85;;;18.60;99.90;;;;;;6212681;23;20307;-88
2022/06/10 20:26:28;;;;;;;3.70;1.23;;;18.50;99.90;;;;;;6193300;23;20031;-88
2022/06/10 20:28:54;;;;;;;2.25;1.60;;;18.60;99.90;;;;;;6194037;23;20012;-90
2022/06/10 20:31:27;;;;;;;2.90;1.92;;;18.50;99.90;;;;;;6194195;23;20020;-87
2022/06/10 20:33:54;;;;;;;5.80;1.63;;;18.50;99.90;;;;;;6193746;23;20023;-88
2022/06/10 20:36:25;;;;;;;2.88;1.73;;;18.50;99.90;;;;;;6194789;23;20016;-89
2022/06/10 20:38:51;;;;;;;3.13;1.73;;;18.50;99.90;;;;;;6194626;23;20348;-89
2022/06/10 20:41:24;;;;;;;2.55;1.55;;;18.50;99.90;;;;;;6194252;23;20067;-89
2022/06/10 20:43:51;;;;;;;3.05;2.03;;;18.50;99.90;;;;;;6194562;23;20016;-88